sensor_id;sensor_type;location;lat;lon;timestamp;P1;durP1;ratioP1;P2;durP2;ratioP2
52764;SDS011;38650;44.536;18.664;2024-02-04T00:01:49;52.33;;;38.50;;
52764;SDS011;38650;44.536;18.664;2024-02-04T00:04:15;51.03;;;39.35;;
52764;SDS011;38650;44.536;18.664;2024-02-04T00:06:40;57.58;;;42.90;;
52764;SDS011;38650;44.536;18.664;2024-02-04T00:09:06;63.22;;;43.08;;
52764;SDS011;38650;44.536;18.664;2024-02-04T00:11:33;79.90;;;52.90;;
52764;SDS011;38650;44.536;18.664;2024-02-04T00:13:59;152.95;;;97.70;;
52764;SDS011;38650;44.536;18.664;2024-02-04T00:16:25;211.80;;;126.38;;
52764;SDS011;38650;44.536;18.664;2024-02-04T00:18:51;236.88;;;141.68;;
52764;SDS011;38650;44.536;18.664;2024-02-04T00:21:17;221.82;;;138.25;;
52764;SDS011;38650;44.536;18.664;2024-02-04T00:23:43;205.57;;;126.07;;
52764;SDS011;38650;44.536;18.664;2024-02-04T00:26:08;204.68;;;127.13;;
52764;SDS011;38650;44.536;18.664;2024-02-04T00:28:34;166.70;;;110.05;;
52764;SDS011;38650;44.536;18.664;2024-02-04T00:31:00;149.05;;;102.40;;
52764;SDS011;38650;44.536;18.664;2024-02-04T00:33:25;152.77;;;99.28;;
52764;SDS011;38650;44.536;18.664;2024-02-04T00:35:51;120.78;;;83.07;;
52764;SDS011;38650;44.536;18.664;2024-02-04T00:38:17;115.68;;;78.45;;
52764;SDS011;38650;44.536;18.664;2024-02-04T00:40:42;106.05;;;72.35;;
52764;SDS011;38650;44.536;18.664;2024-02-04T00:43:08;95.57;;;68.40;;
52764;SDS011;38650;44.536;18.664;2024-02-04T00:45:34;91.90;;;63.13;;
52764;SDS011;38650;44.536;18.664;2024-02-04T00:47:59;90.85;;;59.85;;
52764;SDS011;38650;44.536;18.664;2024-02-04T00:50:25;82.80;;;58.15;;
52764;SDS011;38650;44.536;18.664;2024-02-04T00:52:51;80.70;;;55.55;;
52764;SDS011;38650;44.536;18.664;2024-02-04T00:55:18;83.57;;;57.08;;
52764;SDS011;38650;44.536;18.664;2024-02-04T00:57:44;82.07;;;56.50;;
52764;SDS011;38650;44.536;18.664;2024-02-04T01:00:10;73.95;;;50.72;;
52764;SDS011;38650;44.536;18.664;2024-02-04T01:02:38;75.72;;;52.97;;
52764;SDS011;38650;44.536;18.664;2024-02-04T01:05:04;64.28;;;46.72;;
52764;SDS011;38650;44.536;18.664;2024-02-04T01:07:30;67.75;;;46.85;;
52764;SDS011;38650;44.536;18.664;2024-02-04T01:09:56;66.88;;;47.95;;
52764;SDS011;38650;44.536;18.664;2024-02-04T01:12:21;66.10;;;47.08;;
52764;SDS011;38650;44.536;18.664;2024-02-04T01:14:47;60.10;;;44.42;;
52764;SDS011;38650;44.536;18.664;2024-02-04T01:17:13;58.67;;;42.25;;
52764;SDS011;38650;44.536;18.664;2024-02-04T01:19:38;48.75;;;37.45;;
52764;SDS011;38650;44.536;18.664;2024-02-04T01:22:04;46.33;;;34.72;;
52764;SDS011;38650;44.536;18.664;2024-02-04T01:24:31;44.75;;;34.03;;
52764;SDS011;38650;44.536;18.664;2024-02-04T01:26:56;41.20;;;33.42;;
52764;SDS011;38650;44.536;18.664;2024-02-04T01:29:22;43.15;;;33.42;;
52764;SDS011;38650;44.536;18.664;2024-02-04T01:31:48;37.45;;;29.55;;
52764;SDS011;38650;44.536;18.664;2024-02-04T01:34:13;40.42;;;30.55;;
52764;SDS011;38650;44.536;18.664;2024-02-04T01:36:39;40.97;;;31.58;;
52764;SDS011;38650;44.536;18.664;2024-02-04T01:39:05;45.00;;;33.58;;
52764;SDS011;38650;44.536;18.664;2024-02-04T01:41:31;57.63;;;43.20;;
52764;SDS011;38650;44.536;18.664;2024-02-04T01:43:56;36.55;;;30.15;;
52764;SDS011;38650;44.536;18.664;2024-02-04T01:46:22;39.67;;;31.17;;
52764;SDS011;38650;44.536;18.664;2024-02-04T01:48:48;37.78;;;29.50;;
52764;SDS011;38650;44.536;18.664;2024-02-04T01:51:14;37.50;;;29.17;;
52764;SDS011;38650;44.536;18.664;2024-02-04T01:53:42;34.22;;;27.67;;
52764;SDS011;38650;44.536;18.664;2024-02-04T01:56:11;33.80;;;27.63;;
52764;SDS011;38650;44.536;18.664;2024-02-04T01:58:38;32.80;;;27.13;;
52764;SDS011;38650;44.536;18.664;2024-02-04T02:01:04;30.05;;;24.30;;
52764;SDS011;38650;44.536;18.664;2024-02-04T02:03:30;29.83;;;24.33;;
52764;SDS011;38650;44.536;18.664;2024-02-04T02:05:56;28.13;;;23.08;;
52764;SDS011;38650;44.536;18.664;2024-02-04T02:08:23;30.13;;;24.00;;
52764;SDS011;38650;44.536;18.664;2024-02-04T02:10:49;29.17;;;21.92;;
52764;SDS011;38650;44.536;18.664;2024-02-04T02:13:25;26.75;;;22.23;;
52764;SDS011;38650;44.536;18.664;2024-02-04T02:15:56;31.97;;;23.63;;
52764;SDS011;38650;44.536;18.664;2024-02-04T02:18:44;33.13;;;26.45;;
52764;SDS011;38650;44.536;18.664;2024-02-04T02:26:52;42.55;;;33.75;;
52764;SDS011;38650;44.536;18.664;2024-02-04T02:29:19;52.95;;;40.58;;
52764;SDS011;38650;44.536;18.664;2024-02-04T02:31:44;61.15;;;43.60;;
52764;SDS011;38650;44.536;18.664;2024-02-04T02:34:11;65.05;;;46.40;;
52764;SDS011;38650;44.536;18.664;2024-02-04T02:36:43;59.30;;;42.72;;
52764;SDS011;38650;44.536;18.664;2024-02-04T02:39:15;57.20;;;42.90;;
52764;SDS011;38650;44.536;18.664;2024-02-04T02:41:47;72.07;;;50.75;;
52764;SDS011;38650;44.536;18.664;2024-02-04T02:44:18;91.10;;;64.03;;
52764;SDS011;38650;44.536;18.664;2024-02-04T02:46:45;114.28;;;79.97;;
52764;SDS011;38650;44.536;18.664;2024-02-04T02:49:12;107.72;;;76.93;;
52764;SDS011;38650;44.536;18.664;2024-02-04T02:51:38;96.70;;;66.97;;
52764;SDS011;38650;44.536;18.664;2024-02-04T02:54:04;86.78;;;62.15;;
52764;SDS011;38650;44.536;18.664;2024-02-04T02:56:30;97.53;;;67.90;;
52764;SDS011;38650;44.536;18.664;2024-02-04T02:58:56;83.65;;;59.88;;
52764;SDS011;38650;44.536;18.664;2024-02-04T03:01:21;91.75;;;63.67;;
52764;SDS011;38650;44.536;18.664;2024-02-04T03:03:48;120.78;;;87.03;;
52764;SDS011;38650;44.536;18.664;2024-02-04T03:06:14;118.35;;;83.85;;
52764;SDS011;38650;44.536;18.664;2024-02-04T03:08:40;119.63;;;82.43;;
52764;SDS011;38650;44.536;18.664;2024-02-04T03:11:06;118.57;;;83.80;;
52764;SDS011;38650;44.536;18.664;2024-02-04T03:13:31;119.68;;;84.75;;
52764;SDS011;38650;44.536;18.664;2024-02-04T03:15:57;106.47;;;76.90;;
52764;SDS011;38650;44.536;18.664;2024-02-04T03:18:23;96.63;;;68.80;;
52764;SDS011;38650;44.536;18.664;2024-02-04T03:20:48;92.07;;;65.10;;
52764;SDS011;38650;44.536;18.664;2024-02-04T03:23:14;90.55;;;61.25;;
52764;SDS011;38650;44.536;18.664;2024-02-04T03:25:40;83.65;;;61.28;;
52764;SDS011;38650;44.536;18.664;2024-02-04T03:28:06;79.38;;;57.42;;
52764;SDS011;38650;44.536;18.664;2024-02-04T03:30:32;82.70;;;57.42;;
52764;SDS011;38650;44.536;18.664;2024-02-04T03:32:57;67.95;;;50.45;;
52764;SDS011;38650;44.536;18.664;2024-02-04T03:35:23;72.05;;;50.00;;
52764;SDS011;38650;44.536;18.664;2024-02-04T03:37:49;75.55;;;53.00;;
52764;SDS011;38650;44.536;18.664;2024-02-04T03:40:14;77.00;;;55.25;;
52764;SDS011;38650;44.536;18.664;2024-02-04T03:42:40;72.45;;;51.53;;
52764;SDS011;38650;44.536;18.664;2024-02-04T03:45:06;78.65;;;57.25;;
52764;SDS011;38650;44.536;18.664;2024-02-04T03:47:32;66.97;;;47.22;;
52764;SDS011;38650;44.536;18.664;2024-02-04T03:49:57;63.63;;;45.30;;
52764;SDS011;38650;44.536;18.664;2024-02-04T03:52:23;54.95;;;39.60;;
52764;SDS011;38650;44.536;18.664;2024-02-04T03:54:49;47.65;;;36.03;;
52764;SDS011;38650;44.536;18.664;2024-02-04T03:57:14;41.70;;;32.10;;
52764;SDS011;38650;44.536;18.664;2024-02-04T03:59:43;38.05;;;29.55;;
52764;SDS011;38650;44.536;18.664;2024-02-04T04:02:11;37.35;;;27.65;;
52764;SDS011;38650;44.536;18.664;2024-02-04T04:04:39;34.35;;;26.70;;
52764;SDS011;38650;44.536;18.664;2024-02-04T04:07:06;38.22;;;27.95;;
52764;SDS011;38650;44.536;18.664;2024-02-04T04:09:32;43.28;;;33.35;;
52764;SDS011;38650;44.536;18.664;2024-02-04T04:11:57;44.40;;;33.30;;
52764;SDS011;38650;44.536;18.664;2024-02-04T04:14:23;54.53;;;41.97;;
52764;SDS011;38650;44.536;18.664;2024-02-04T04:16:49;51.53;;;38.92;;
52764;SDS011;38650;44.536;18.664;2024-02-04T04:19:14;41.65;;;32.25;;
52764;SDS011;38650;44.536;18.664;2024-02-04T04:21:40;40.70;;;32.35;;
52764;SDS011;38650;44.536;18.664;2024-02-04T04:24:06;55.15;;;40.85;;
52764;SDS011;38650;44.536;18.664;2024-02-04T04:26:31;51.03;;;40.08;;
52764;SDS011;38650;44.536;18.664;2024-02-04T04:28:58;50.05;;;38.25;;
52764;SDS011;38650;44.536;18.664;2024-02-04T04:31:24;50.70;;;36.72;;
52764;SDS011;38650;44.536;18.664;2024-02-04T04:33:50;39.63;;;30.95;;
52764;SDS011;38650;44.536;18.664;2024-02-04T04:36:17;37.15;;;29.65;;
52764;SDS011;38650;44.536;18.664;2024-02-04T04:38:43;49.45;;;36.40;;
52764;SDS011;38650;44.536;18.664;2024-02-04T04:41:09;42.10;;;32.80;;
52764;SDS011;38650;44.536;18.664;2024-02-04T04:43:36;42.90;;;32.85;;
52764;SDS011;38650;44.536;18.664;2024-02-04T04:46:03;44.95;;;34.45;;
52764;SDS011;38650;44.536;18.664;2024-02-04T04:48:29;45.42;;;35.80;;
52764;SDS011;38650;44.536;18.664;2024-02-04T04:50:54;48.70;;;39.10;;
52764;SDS011;38650;44.536;18.664;2024-02-04T04:53:20;46.65;;;38.08;;
52764;SDS011;38650;44.536;18.664;2024-02-04T04:55:46;42.65;;;33.60;;
52764;SDS011;38650;44.536;18.664;2024-02-04T04:58:11;39.90;;;31.60;;
52764;SDS011;38650;44.536;18.664;2024-02-04T05:00:37;47.40;;;39.85;;
52764;SDS011;38650;44.536;18.664;2024-02-04T05:03:03;45.88;;;35.63;;
52764;SDS011;38650;44.536;18.664;2024-02-04T05:05:29;35.25;;;29.50;;
52764;SDS011;38650;44.536;18.664;2024-02-04T05:07:55;32.70;;;26.65;;
52764;SDS011;38650;44.536;18.664;2024-02-04T05:10:21;29.70;;;25.40;;
52764;SDS011;38650;44.536;18.664;2024-02-04T05:12:46;37.13;;;27.90;;
52764;SDS011;38650;44.536;18.664;2024-02-04T05:15:12;29.65;;;25.05;;
52764;SDS011;38650;44.536;18.664;2024-02-04T05:17:38;35.25;;;28.33;;
52764;SDS011;38650;44.536;18.664;2024-02-04T05:20:03;37.88;;;30.35;;
52764;SDS011;38650;44.536;18.664;2024-02-04T05:22:30;38.95;;;29.00;;
52764;SDS011;38650;44.536;18.664;2024-02-04T05:24:56;48.17;;;36.38;;
52764;SDS011;38650;44.536;18.664;2024-02-04T05:27:21;50.88;;;39.22;;
52764;SDS011;38650;44.536;18.664;2024-02-04T05:29:47;36.58;;;28.58;;
52764;SDS011;38650;44.536;18.664;2024-02-04T05:32:13;36.10;;;28.08;;
52764;SDS011;38650;44.536;18.664;2024-02-04T05:34:38;31.02;;;26.25;;
52764;SDS011;38650;44.536;18.664;2024-02-04T05:37:04;34.72;;;27.02;;
52764;SDS011;38650;44.536;18.664;2024-02-04T05:39:30;48.15;;;35.30;;
52764;SDS011;38650;44.536;18.664;2024-02-04T05:41:55;52.63;;;36.33;;
52764;SDS011;38650;44.536;18.664;2024-02-04T05:44:21;50.03;;;34.25;;
52764;SDS011;38650;44.536;18.664;2024-02-04T05:46:47;54.05;;;35.50;;
52764;SDS011;38650;44.536;18.664;2024-02-04T05:49:12;56.88;;;36.45;;
52764;SDS011;38650;44.536;18.664;2024-02-04T05:51:38;67.20;;;41.20;;
52764;SDS011;38650;44.536;18.664;2024-02-04T05:54:05;60.38;;;39.80;;
52764;SDS011;38650;44.536;18.664;2024-02-04T05:56:31;48.35;;;33.00;;
52764;SDS011;38650;44.536;18.664;2024-02-04T05:58:57;43.63;;;29.65;;
52764;SDS011;38650;44.536;18.664;2024-02-04T06:01:23;43.47;;;29.10;;
52764;SDS011;38650;44.536;18.664;2024-02-04T06:03:48;38.38;;;28.98;;
52764;SDS011;38650;44.536;18.664;2024-02-04T06:06:17;34.88;;;25.05;;
52764;SDS011;38650;44.536;18.664;2024-02-04T06:08:45;31.67;;;23.60;;
52764;SDS011;38650;44.536;18.664;2024-02-04T06:11:12;30.48;;;21.67;;
52764;SDS011;38650;44.536;18.664;2024-02-04T06:13:39;30.95;;;21.58;;
52764;SDS011;38650;44.536;18.664;2024-02-04T06:16:07;37.08;;;26.25;;
52764;SDS011;38650;44.536;18.664;2024-02-04T06:18:34;41.67;;;28.10;;
52764;SDS011;38650;44.536;18.664;2024-02-04T06:21:02;36.60;;;26.42;;
52764;SDS011;38650;44.536;18.664;2024-02-04T06:23:28;38.20;;;26.70;;
52764;SDS011;38650;44.536;18.664;2024-02-04T06:25:54;40.45;;;26.70;;
52764;SDS011;38650;44.536;18.664;2024-02-04T06:28:20;48.20;;;32.88;;
52764;SDS011;38650;44.536;18.664;2024-02-04T06:30:45;47.47;;;32.45;;
52764;SDS011;38650;44.536;18.664;2024-02-04T06:33:11;37.72;;;26.85;;
52764;SDS011;38650;44.536;18.664;2024-02-04T06:35:37;40.05;;;28.73;;
52764;SDS011;38650;44.536;18.664;2024-02-04T06:38:02;33.92;;;24.67;;
52764;SDS011;38650;44.536;18.664;2024-02-04T06:40:28;33.78;;;24.50;;
52764;SDS011;38650;44.536;18.664;2024-02-04T06:42:54;35.65;;;25.42;;
52764;SDS011;38650;44.536;18.664;2024-02-04T06:45:19;34.30;;;24.25;;
52764;SDS011;38650;44.536;18.664;2024-02-04T06:47:45;27.60;;;21.17;;
52764;SDS011;38650;44.536;18.664;2024-02-04T06:50:11;32.70;;;24.15;;
52764;SDS011;38650;44.536;18.664;2024-02-04T06:52:41;32.50;;;23.30;;
52764;SDS011;38650;44.536;18.664;2024-02-04T06:55:08;40.63;;;29.20;;
52764;SDS011;38650;44.536;18.664;2024-02-04T06:57:34;58.13;;;40.67;;
52764;SDS011;38650;44.536;18.664;2024-02-04T06:59:59;70.93;;;49.38;;
52764;SDS011;38650;44.536;18.664;2024-02-04T07:02:25;55.08;;;40.97;;
52764;SDS011;38650;44.536;18.664;2024-02-04T07:04:51;49.17;;;35.88;;
52764;SDS011;38650;44.536;18.664;2024-02-04T07:07:17;44.50;;;33.30;;
52764;SDS011;38650;44.536;18.664;2024-02-04T07:09:43;52.45;;;38.95;;
52764;SDS011;38650;44.536;18.664;2024-02-04T07:12:08;42.20;;;32.13;;
52764;SDS011;38650;44.536;18.664;2024-02-04T07:14:34;38.22;;;30.25;;
52764;SDS011;38650;44.536;18.664;2024-02-04T07:17:00;38.47;;;29.05;;
52764;SDS011;38650;44.536;18.664;2024-02-04T07:19:25;31.65;;;26.20;;
52764;SDS011;38650;44.536;18.664;2024-02-04T07:21:51;36.45;;;28.83;;
52764;SDS011;38650;44.536;18.664;2024-02-04T07:24:17;34.80;;;26.98;;
52764;SDS011;38650;44.536;18.664;2024-02-04T07:26:43;34.38;;;27.65;;
52764;SDS011;38650;44.536;18.664;2024-02-04T07:29:10;29.98;;;24.35;;
52764;SDS011;38650;44.536;18.664;2024-02-04T07:31:37;26.38;;;22.25;;
52764;SDS011;38650;44.536;18.664;2024-02-04T07:34:03;25.80;;;21.08;;
52764;SDS011;38650;44.536;18.664;2024-02-04T07:36:29;30.70;;;23.85;;
52764;SDS011;38650;44.536;18.664;2024-02-04T07:38:55;45.05;;;34.78;;
52764;SDS011;38650;44.536;18.664;2024-02-04T07:41:21;52.10;;;43.42;;
52764;SDS011;38650;44.536;18.664;2024-02-04T07:43:46;85.78;;;70.50;;
52764;SDS011;38650;44.536;18.664;2024-02-04T07:46:13;85.80;;;66.78;;
52764;SDS011;38650;44.536;18.664;2024-02-04T07:48:39;111.80;;;88.93;;
52764;SDS011;38650;44.536;18.664;2024-02-04T07:51:04;96.82;;;77.63;;
52764;SDS011;38650;44.536;18.664;2024-02-04T07:53:31;114.68;;;94.45;;
52764;SDS011;38650;44.536;18.664;2024-02-04T07:55:57;89.20;;;76.50;;
52764;SDS011;38650;44.536;18.664;2024-02-04T07:58:23;91.55;;;79.32;;
52764;SDS011;38650;44.536;18.664;2024-02-04T08:00:48;83.68;;;73.22;;
52764;SDS011;38650;44.536;18.664;2024-02-04T08:03:14;167.02;;;138.70;;
52764;SDS011;38650;44.536;18.664;2024-02-04T08:05:40;133.55;;;119.13;;
52764;SDS011;38650;44.536;18.664;2024-02-04T08:08:05;127.78;;;113.93;;
52764;SDS011;38650;44.536;18.664;2024-02-04T08:10:31;107.05;;;95.65;;
52764;SDS011;38650;44.536;18.664;2024-02-04T08:12:57;95.07;;;85.30;;
52764;SDS011;38650;44.536;18.664;2024-02-04T08:15:22;83.18;;;74.72;;
52764;SDS011;38650;44.536;18.664;2024-02-04T08:17:48;75.82;;;67.88;;
52764;SDS011;38650;44.536;18.664;2024-02-04T08:20:14;63.95;;;57.45;;
52764;SDS011;38650;44.536;18.664;2024-02-04T08:22:39;60.25;;;54.05;;
52764;SDS011;38650;44.536;18.664;2024-02-04T08:25:05;58.20;;;52.13;;
52764;SDS011;38650;44.536;18.664;2024-02-04T08:27:31;56.17;;;50.22;;
52764;SDS011;38650;44.536;18.664;2024-02-04T08:29:57;54.38;;;48.72;;
52764;SDS011;38650;44.536;18.664;2024-02-04T08:32:23;52.05;;;46.70;;
52764;SDS011;38650;44.536;18.664;2024-02-04T08:34:48;50.28;;;45.10;;
52764;SDS011;38650;44.536;18.664;2024-02-04T08:37:14;49.17;;;44.15;;
52764;SDS011;38650;44.536;18.664;2024-02-04T08:39:39;54.20;;;48.58;;
52764;SDS011;38650;44.536;18.664;2024-02-04T08:42:05;50.50;;;45.47;;
52764;SDS011;38650;44.536;18.664;2024-02-04T08:44:31;46.15;;;41.35;;
52764;SDS011;38650;44.536;18.664;2024-02-04T08:46:56;40.50;;;36.30;;
52764;SDS011;38650;44.536;18.664;2024-02-04T08:49:23;38.90;;;35.10;;
52764;SDS011;38650;44.536;18.664;2024-02-04T08:51:48;34.38;;;30.92;;
52764;SDS011;38650;44.536;18.664;2024-02-04T08:54:14;34.13;;;30.63;;
52764;SDS011;38650;44.536;18.664;2024-02-04T08:56:40;32.58;;;29.23;;
52764;SDS011;38650;44.536;18.664;2024-02-04T08:59:06;33.35;;;29.75;;
52764;SDS011;38650;44.536;18.664;2024-02-04T09:01:33;32.97;;;29.42;;
52764;SDS011;38650;44.536;18.664;2024-02-04T09:03:58;31.98;;;28.52;;
52764;SDS011;38650;44.536;18.664;2024-02-04T09:06:24;34.42;;;30.83;;
52764;SDS011;38650;44.536;18.664;2024-02-04T09:08:49;34.20;;;30.40;;
52764;SDS011;38650;44.536;18.664;2024-02-04T09:11:15;33.78;;;29.92;;
52764;SDS011;38650;44.536;18.664;2024-02-04T09:13:47;30.33;;;27.08;;
52764;SDS011;38650;44.536;18.664;2024-02-04T09:16:13;28.23;;;25.20;;
52764;SDS011;38650;44.536;18.664;2024-02-04T09:18:38;25.85;;;23.17;;
52764;SDS011;38650;44.536;18.664;2024-02-04T09:21:04;30.42;;;27.15;;
52764;SDS011;38650;44.536;18.664;2024-02-04T09:23:30;31.98;;;28.58;;
52764;SDS011;38650;44.536;18.664;2024-02-04T09:25:56;29.92;;;26.60;;
52764;SDS011;38650;44.536;18.664;2024-02-04T09:28:21;30.80;;;27.60;;
52764;SDS011;38650;44.536;18.664;2024-02-04T09:30:47;28.17;;;25.33;;
52764;SDS011;38650;44.536;18.664;2024-02-04T09:33:13;27.40;;;24.70;;
52764;SDS011;38650;44.536;18.664;2024-02-04T09:35:39;30.73;;;27.52;;
52764;SDS011;38650;44.536;18.664;2024-02-04T09:38:05;28.02;;;25.27;;
52764;SDS011;38650;44.536;18.664;2024-02-04T09:40:31;28.55;;;25.55;;
52764;SDS011;38650;44.536;18.664;2024-02-04T09:42:57;30.00;;;26.95;;
52764;SDS011;38650;44.536;18.664;2024-02-04T09:45:24;29.80;;;26.88;;
52764;SDS011;38650;44.536;18.664;2024-02-04T09:47:51;31.17;;;27.77;;
52764;SDS011;38650;44.536;18.664;2024-02-04T09:50:21;30.23;;;27.25;;
52764;SDS011;38650;44.536;18.664;2024-02-04T09:52:50;29.48;;;26.67;;
52764;SDS011;38650;44.536;18.664;2024-02-04T09:55:20;27.48;;;24.83;;
52764;SDS011;38650;44.536;18.664;2024-02-04T09:57:47;29.55;;;26.52;;
52764;SDS011;38650;44.536;18.664;2024-02-04T10:00:12;29.35;;;26.50;;
52764;SDS011;38650;44.536;18.664;2024-02-04T10:02:38;25.67;;;23.33;;
52764;SDS011;38650;44.536;18.664;2024-02-04T10:05:06;25.20;;;22.90;;
52764;SDS011;38650;44.536;18.664;2024-02-04T10:07:34;25.77;;;23.23;;
52764;SDS011;38650;44.536;18.664;2024-02-04T10:10:00;23.60;;;21.40;;
52764;SDS011;38650;44.536;18.664;2024-02-04T10:12:26;22.88;;;20.80;;
52764;SDS011;38650;44.536;18.664;2024-02-04T10:14:52;21.33;;;19.30;;
52764;SDS011;38650;44.536;18.664;2024-02-04T10:17:17;20.80;;;18.80;;
52764;SDS011;38650;44.536;18.664;2024-02-04T10:19:47;18.67;;;16.90;;
52764;SDS011;38650;44.536;18.664;2024-02-04T10:22:13;18.85;;;17.13;;
52764;SDS011;38650;44.536;18.664;2024-02-04T10:24:39;17.55;;;15.95;;
52764;SDS011;38650;44.536;18.664;2024-02-04T10:27:05;16.40;;;14.90;;
52764;SDS011;38650;44.536;18.664;2024-02-04T10:29:30;17.33;;;15.73;;
52764;SDS011;38650;44.536;18.664;2024-02-04T10:31:56;18.40;;;16.63;;
52764;SDS011;38650;44.536;18.664;2024-02-04T10:34:23;22.10;;;20.10;;
52764;SDS011;38650;44.536;18.664;2024-02-04T10:36:52;29.30;;;26.33;;
52764;SDS011;38650;44.536;18.664;2024-02-04T10:39:18;30.50;;;27.65;;
52764;SDS011;38650;44.536;18.664;2024-02-04T10:41:49;30.23;;;27.42;;
52764;SDS011;38650;44.536;18.664;2024-02-04T10:44:16;26.17;;;23.67;;
52764;SDS011;38650;44.536;18.664;2024-02-04T10:46:43;24.92;;;22.50;;
52764;SDS011;38650;44.536;18.664;2024-02-04T10:49:14;24.23;;;22.08;;
52764;SDS011;38650;44.536;18.664;2024-02-04T10:51:41;23.73;;;21.52;;
52764;SDS011;38650;44.536;18.664;2024-02-04T10:54:07;22.40;;;20.40;;
52764;SDS011;38650;44.536;18.664;2024-02-04T10:56:37;24.20;;;21.90;;
52764;SDS011;38650;44.536;18.664;2024-02-04T10:59:10;24.55;;;22.25;;
52764;SDS011;38650;44.536;18.664;2024-02-04T11:01:39;23.85;;;21.60;;
52764;SDS011;38650;44.536;18.664;2024-02-04T11:04:06;21.67;;;19.67;;
52764;SDS011;38650;44.536;18.664;2024-02-04T11:06:36;20.08;;;18.35;;
52764;SDS011;38650;44.536;18.664;2024-02-04T11:09:05;20.77;;;18.85;;
52764;SDS011;38650;44.536;18.664;2024-02-04T11:11:33;18.73;;;16.85;;
52764;SDS011;38650;44.536;18.664;2024-02-04T11:14:00;17.48;;;15.88;;
52764;SDS011;38650;44.536;18.664;2024-02-04T11:24:32;13.25;;;11.98;;
52764;SDS011;38650;44.536;18.664;2024-02-04T11:27:21;11.80;;;10.70;;
52764;SDS011;38650;44.536;18.664;2024-02-04T11:29:48;9.00;;;8.20;;
52764;SDS011;38650;44.536;18.664;2024-02-04T11:32:14;7.50;;;6.90;;
52764;SDS011;38650;44.536;18.664;2024-02-04T11:34:40;7.22;;;6.63;;
52764;SDS011;38650;44.536;18.664;2024-02-04T11:37:18;6.50;;;6.00;;
52764;SDS011;38650;44.536;18.664;2024-02-04T11:39:51;6.22;;;5.72;;
52764;SDS011;38650;44.536;18.664;2024-02-04T11:42:17;5.72;;;5.22;;
52764;SDS011;38650;44.536;18.664;2024-02-04T11:44:44;5.53;;;5.05;;
52764;SDS011;38650;44.536;18.664;2024-02-04T11:47:11;5.40;;;4.90;;
52764;SDS011;38650;44.536;18.664;2024-02-04T11:49:53;4.82;;;4.43;;
52764;SDS011;38650;44.536;18.664;2024-02-04T11:52:20;5.15;;;4.75;;
52764;SDS011;38650;44.536;18.664;2024-02-04T11:54:45;5.43;;;4.93;;
52764;SDS011;38650;44.536;18.664;2024-02-04T11:57:12;5.50;;;5.10;;
52764;SDS011;38650;44.536;18.664;2024-02-04T11:59:40;5.47;;;4.97;;
52764;SDS011;38650;44.536;18.664;2024-02-04T12:02:07;5.45;;;5.05;;
52764;SDS011;38650;44.536;18.664;2024-02-04T12:04:33;6.53;;;6.03;;
52764;SDS011;38650;44.536;18.664;2024-02-04T12:06:59;6.80;;;6.30;;
52764;SDS011;38650;44.536;18.664;2024-02-04T12:09:27;6.93;;;6.32;;
52764;SDS011;38650;44.536;18.664;2024-02-04T12:11:54;7.35;;;6.75;;
52764;SDS011;38650;44.536;18.664;2024-02-04T12:14:19;8.23;;;7.53;;
52764;SDS011;38650;44.536;18.664;2024-02-04T12:16:46;10.75;;;9.75;;
52764;SDS011;38650;44.536;18.664;2024-02-04T12:19:12;9.85;;;9.05;;
52764;SDS011;38650;44.536;18.664;2024-02-04T12:21:37;10.02;;;9.13;;
52764;SDS011;38650;44.536;18.664;2024-02-04T12:24:03;10.95;;;9.95;;
52764;SDS011;38650;44.536;18.664;2024-02-04T12:26:29;10.63;;;9.73;;
52764;SDS011;38650;44.536;18.664;2024-02-04T12:28:56;9.95;;;9.15;;
52764;SDS011;38650;44.536;18.664;2024-02-04T12:31:24;9.07;;;8.18;;
52764;SDS011;38650;44.536;18.664;2024-02-04T12:33:54;8.25;;;7.53;;
52764;SDS011;38650;44.536;18.664;2024-02-04T12:36:23;7.75;;;7.15;;
52764;SDS011;38650;44.536;18.664;2024-02-04T12:38:59;8.20;;;7.50;;
52764;SDS011;38650;44.536;18.664;2024-02-04T12:41:26;7.22;;;6.53;;
52764;SDS011;38650;44.536;18.664;2024-02-04T12:43:53;7.40;;;6.80;;
52764;SDS011;38650;44.536;18.664;2024-02-04T12:46:21;7.13;;;6.45;;
52764;SDS011;38650;44.536;18.664;2024-02-04T12:48:51;6.07;;;5.57;;
52764;SDS011;38650;44.536;18.664;2024-02-04T12:51:28;5.65;;;5.15;;
52764;SDS011;38650;44.536;18.664;2024-02-04T12:54:02;6.07;;;5.60;;
52764;SDS011;38650;44.536;18.664;2024-02-04T12:56:41;4.90;;;4.50;;
52764;SDS011;38650;44.536;18.664;2024-02-04T12:59:26;5.32;;;4.90;;
52764;SDS011;38650;44.536;18.664;2024-02-04T13:01:57;4.68;;;4.38;;
52764;SDS011;38650;44.536;18.664;2024-02-04T13:04:25;4.43;;;4.13;;
52764;SDS011;38650;44.536;18.664;2024-02-04T13:06:51;4.80;;;4.40;;
52764;SDS011;38650;44.536;18.664;2024-02-04T13:09:18;4.68;;;4.28;;
52764;SDS011;38650;44.536;18.664;2024-02-04T13:11:44;4.50;;;4.10;;
52764;SDS011;38650;44.536;18.664;2024-02-04T13:14:10;3.83;;;3.53;;
52764;SDS011;38650;44.536;18.664;2024-02-04T13:16:37;4.15;;;3.85;;
52764;SDS011;38650;44.536;18.664;2024-02-04T13:19:03;4.40;;;4.00;;
52764;SDS011;38650;44.536;18.664;2024-02-04T13:21:29;4.32;;;3.92;;
52764;SDS011;38650;44.536;18.664;2024-02-04T13:23:55;4.68;;;4.30;;
52764;SDS011;38650;44.536;18.664;2024-02-04T13:26:21;5.15;;;4.60;;
52764;SDS011;38650;44.536;18.664;2024-02-04T13:28:47;5.20;;;4.70;;
52764;SDS011;38650;44.536;18.664;2024-02-04T13:31:13;4.55;;;4.20;;
52764;SDS011;38650;44.536;18.664;2024-02-04T13:33:39;4.97;;;4.45;;
52764;SDS011;38650;44.536;18.664;2024-02-04T13:36:06;5.10;;;4.65;;
52764;SDS011;38650;44.536;18.664;2024-02-04T13:38:33;4.82;;;4.32;;
52764;SDS011;38650;44.536;18.664;2024-02-04T13:40:59;6.15;;;5.55;;
52764;SDS011;38650;44.536;18.664;2024-02-04T13:43:25;8.07;;;7.45;;
52764;SDS011;38650;44.536;18.664;2024-02-04T13:45:51;10.95;;;9.90;;
52764;SDS011;38650;44.536;18.664;2024-02-04T13:48:17;10.90;;;9.95;;
52764;SDS011;38650;44.536;18.664;2024-02-04T13:50:44;9.93;;;9.13;;
52764;SDS011;38650;44.536;18.664;2024-02-04T13:53:10;7.93;;;7.10;;
52764;SDS011;38650;44.536;18.664;2024-02-04T13:55:36;8.27;;;7.57;;
52764;SDS011;38650;44.536;18.664;2024-02-04T13:58:02;8.02;;;7.32;;
52764;SDS011;38650;44.536;18.664;2024-02-04T14:00:28;8.38;;;7.68;;
52764;SDS011;38650;44.536;18.664;2024-02-04T14:02:54;8.38;;;7.65;;
52764;SDS011;38650;44.536;18.664;2024-02-04T14:05:20;8.98;;;8.27;;
52764;SDS011;38650;44.536;18.664;2024-02-04T14:07:46;7.75;;;7.05;;
52764;SDS011;38650;44.536;18.664;2024-02-04T14:10:11;8.68;;;7.90;;
52764;SDS011;38650;44.536;18.664;2024-02-04T14:12:39;9.15;;;8.45;;
52764;SDS011;38650;44.536;18.664;2024-02-04T14:15:06;8.88;;;8.07;;
52764;SDS011;38650;44.536;18.664;2024-02-04T14:17:32;7.90;;;7.20;;
52764;SDS011;38650;44.536;18.664;2024-02-04T14:19:58;8.10;;;7.40;;
52764;SDS011;38650;44.536;18.664;2024-02-04T14:22:24;7.55;;;6.95;;
52764;SDS011;38650;44.536;18.664;2024-02-04T14:24:50;6.88;;;6.20;;